createdAt,value
2022-08-05T00:06:30.732Z,101568.25
2022-08-05T00:16:36.592Z,101576.59
2022-08-05T00:26:54.629Z,101585.00
2022-08-05T00:37:10.848Z,101581.81
2022-08-05T00:47:16.359Z,101576.91
2022-08-05T00:57:17.937Z,101550.84
2022-08-05T01:07:31.666Z,101533.84
2022-08-05T01:17:43.963Z,101514.34
2022-08-05T01:27:55.398Z,101511.84
2022-08-05T01:38:00.680Z,101504.09
2022-08-05T01:48:03.882Z,101441.47
2022-08-05T01:58:15.776Z,101463.69
2022-08-05T02:08:30.654Z,101429.72
2022-08-05T02:18:42.835Z,101377.69
2022-08-05T02:28:46.314Z,101371.03
2022-08-05T02:38:53.116Z,101464.78
2022-08-05T02:48:57.000Z,101496.75
2022-08-05T02:59:00.357Z,101496.44
2022-08-05T03:09:02.196Z,101525.91
2022-08-05T03:19:16.967Z,101522.81
2022-08-05T03:29:45.166Z,101481.31
2022-08-05T03:39:58.680Z,101462.19
2022-08-05T03:50:00.962Z,101451.19
2022-08-05T04:00:09.175Z,101474.47
2022-08-05T04:10:17.525Z,101500.09
2022-08-05T04:20:22.126Z,101494.28
2022-08-05T04:30:24.761Z,101507.13
2022-08-05T04:40:28.027Z,101527.41
2022-08-05T04:50:34.407Z,101539.38
2022-08-05T05:00:39.868Z,101557.13
2022-08-05T05:10:55.792Z,101572.63
2022-08-05T05:20:58.489Z,101557.38
2022-08-05T05:31:00.141Z,101522.56
2022-08-05T05:41:02.034Z,101548.28
2022-08-05T05:51:15.289Z,101564.72
2022-08-05T06:01:17.514Z,101584.09
2022-08-05T06:11:24.968Z,101583.44
2022-08-05T06:21:35.865Z,101553.97
2022-08-05T06:31:38.632Z,101563.94
2022-08-05T06:41:43.520Z,101597.03
2022-08-05T06:51:47.263Z,101583.53
2022-08-05T07:01:48.718Z,101579.22
2022-08-05T07:11:54.487Z,101596.56
2022-08-05T07:22:00.510Z,101607.72
2022-08-05T07:32:03.979Z,101583.31
2022-08-05T07:42:13.588Z,101593.78
2022-08-05T07:52:16.690Z,101588.63
2022-08-05T08:02:26.637Z,101591.41
2022-08-05T08:12:49.331Z,101598.41
2022-08-05T08:22:55.999Z,101593.34
2022-08-05T08:32:57.431Z,101611.97
2022-08-05T08:45:21.359Z,101611.66
2022-08-05T08:53:24.636Z,101621.38
2022-08-05T09:03:28.787Z,101623.44
2022-08-05T09:14:09.610Z,101648.56
2022-08-05T09:24:08.779Z,101650.34
2022-08-05T09:34:13.029Z,101639.72
2022-08-05T09:44:33.108Z,101635.56
2022-08-05T09:54:34.529Z,101658.88
2022-08-05T10:04:38.303Z,101652.28
2022-08-05T10:14:40.801Z,101653.38
2022-08-05T10:24:46.480Z,101648.41
2022-08-05T10:34:52.555Z,101677.84
2022-08-05T10:44:56.259Z,101675.78
2022-08-05T10:55:07.062Z,101680.56
2022-08-05T11:05:10.235Z,101696.22
2022-08-05T11:16:00.100Z,101713.66
2022-08-05T11:26:28.996Z,101705.34
2022-08-05T11:36:43.915Z,101729.69
2022-08-05T11:47:09.983Z,101745.97
2022-08-05T11:57:25.352Z,101749.25
2022-08-05T12:08:04.394Z,101755.00
2022-08-05T12:18:03.708Z,101760.97
2022-08-05T12:28:05.895Z,101760.44
2022-08-05T12:38:07.446Z,101766.38
2022-08-05T12:48:26.959Z,101766.59
2022-08-05T12:58:51.004Z,101781.78
2022-08-05T13:08:54.984Z,101778.84
2022-08-05T13:18:58.390Z,101787.91
2022-08-05T13:29:00.698Z,101778.63
2022-08-05T13:39:08.404Z,101772.44
2022-08-05T13:49:25.843Z,101766.47
2022-08-05T13:59:30.880Z,101773.44
2022-08-05T14:09:34.185Z,101764.91
2022-08-05T14:19:56.147Z,101764.66
2022-08-05T14:29:59.165Z,101759.66
2022-08-05T14:40:00.722Z,101772.28
2022-08-05T14:50:15.695Z,101772.03
2022-08-05T15:00:20.454Z,101766.84
2022-08-05T15:10:30.056Z,101835.09
2022-08-05T15:20:31.605Z,101837.50
2022-08-05T15:30:33.928Z,101844.53
2022-08-05T15:40:58.697Z,101855.13
2022-08-05T15:51:03.402Z,101864.88
2022-08-05T16:01:16.891Z,101888.81
2022-08-05T16:11:21.098Z,101892.34
2022-08-05T16:22:00.734Z,101905.38
2022-08-05T16:32:02.171Z,101904.78
2022-08-05T16:42:27.732Z,101928.97
2022-08-05T16:52:33.584Z,101936.59
2022-08-05T17:02:35.491Z,101962.34
2022-08-05T17:12:51.000Z,101957.56
2022-08-05T17:22:55.481Z,101969.25
2022-08-05T17:32:57.351Z,101985.47
2022-08-05T17:42:58.769Z,102006.28
2022-08-05T17:53:05.147Z,102019.94
2022-08-05T18:03:06.632Z,102030.81
2022-08-05T18:13:12.249Z,102050.03
2022-08-05T18:23:14.336Z,102068.13
2022-08-05T18:33:16.191Z,102086.28
2022-08-05T18:43:23.853Z,102069.84
2022-08-05T18:53:25.325Z,102088.38
2022-08-05T19:03:53.506Z,102107.41
2022-08-05T19:13:49.255Z,102119.16
2022-08-05T19:24:08.981Z,102129.59
2022-08-05T19:34:14.244Z,102147.22
2022-08-05T19:44:20.158Z,102159.94
2022-08-05T19:54:25.579Z,102156.75
2022-08-05T20:04:32.770Z,102167.91
2022-08-05T20:14:35.005Z,102193.00
2022-08-05T20:24:36.376Z,102200.38
2022-08-05T20:34:39.339Z,102210.09
2022-08-05T20:44:42.768Z,102219.47
2022-08-05T20:55:15.891Z,102223.44
2022-08-05T21:05:07.259Z,102241.66
2022-08-05T21:15:10.926Z,102251.34
2022-08-05T21:25:12.295Z,102260.63
2022-08-05T21:35:18.171Z,102273.34
2022-08-05T21:45:56.597Z,102283.31
2022-08-05T21:56:05.287Z,102267.47
2022-08-05T22:06:11.658Z,102271.41
2022-08-05T22:16:32.177Z,102287.16
2022-08-05T22:26:34.383Z,102292.13
2022-08-05T22:36:36.847Z,102289.13
2022-08-05T22:46:40.902Z,102299.03
2022-08-05T22:56:42.808Z,102305.69
2022-08-05T23:06:44.225Z,102310.09
2022-08-05T23:16:46.881Z,102310.25
2022-08-05T23:26:53.584Z,102332.59
2022-08-05T23:36:55.032Z,102342.91
2022-08-05T23:46:56.689Z,102349.13
2022-08-05T23:57:03.856Z,102367.44
